Time;durP1;ratioP1;P1;durP2;ratioP2;P2;SDS_P1;SDS_P2;PMS_P1;PMS_P2;Temp;Humidity;BMP_temperature;BMP_pressure;BME280_temperature;BME280_humidity;BME280_pressure;Samples;Min_cycle;Max_cycle;Signal;HPM_P1;HPM_P2
2022/04/30 00:01:19;;;;;;;20.40;11.83;;;13.30;99.90;;;;;;5078780;28;20955;-81
2022/04/30 00:04:12;;;;;;;18.90;11.60;;;13.20;99.90;;;;;;5077456;28;20451;-81
2022/04/30 00:06:43;;;;;;;26.23;12.50;;;13.20;99.90;;;;;;5057669;28;20397;-78
2022/04/30 00:09:09;;;;;;;18.63;10.27;;;13.30;99.90;;;;;;5085365;28;20478;-78
2022/04/30 00:11:37;;;;;;;19.63;11.50;;;13.20;99.90;;;;;;5077280;28;20448;-78
2022/04/30 00:14:31;;;;;;;21.70;11.23;;;13.20;99.90;;;;;;5078630;28;20232;-78
2022/04/30 00:17:01;;;;;;;22.13;11.73;;;13.20;99.90;;;;;;5077615;28;20415;-78
2022/04/30 00:19:28;;;;;;;20.90;12.40;;;13.20;99.90;;;;;;5076814;28;20428;-77
2022/04/30 00:21:54;;;;;;;20.70;11.73;;;13.10;99.90;;;;;;5089474;28;20424;-81
2022/04/30 00:25:01;;;;;;;26.10;12.00;;;13.20;99.90;;;;;;5091890;28;20409;-80
2022/04/30 00:27:27;;;;;;;20.17;11.40;;;13.20;99.90;;;;;;5092767;28;20415;-80
2022/04/30 00:30:12;;;;;;;20.63;11.33;;;13.10;99.90;;;;;;5076763;28;20858;-81
2022/04/30 00:32:55;;;;;;;19.53;11.70;;;13.20;99.90;;;;;;5075334;28;20420;-80
2022/04/30 00:35:31;;;;;;;22.53;12.13;;;13.10;99.90;;;;;;5083709;28;20477;-78
2022/04/30 00:38:07;;;;;;;17.67;11.40;;;13.00;99.90;;;;;;5086252;28;20918;-78
2022/04/30 00:40:37;;;;;;;19.53;11.20;;;13.00;99.90;;;;;;5090337;28;20506;-78
2022/04/30 00:43:03;;;;;;;27.00;12.37;;;13.00;99.90;;;;;;5085491;28;20437;-77
2022/04/30 00:45:49;;;;;;;20.60;12.40;;;13.00;99.90;;;;;;5076429;28;21002;-77
2022/04/30 00:48:15;;;;;;;23.33;11.67;;;12.90;99.90;;;;;;5077132;28;20504;-78
2022/04/30 00:50:50;;;;;;;21.17;11.87;;;12.90;99.90;;;;;;5084854;28;20861;-77
2022/04/30 00:53:21;;;;;;;20.53;11.07;;;12.80;99.90;;;;;;5080230;28;20409;-78
2022/04/30 00:56:09;;;;;;;20.70;10.97;;;12.70;99.90;;;;;;5076424;28;20393;-77
2022/04/30 00:58:40;;;;;;;22.53;11.97;;;12.70;99.90;;;;;;5076481;28;20433;-77
2022/04/30 01:01:06;;;;;;;16.97;10.50;;;12.70;99.90;;;;;;5070439;28;20450;-77
2022/04/30 01:03:54;;;;;;;17.53;10.40;;;12.70;99.90;;;;;;5083545;28;20426;-78
2022/04/30 01:06:48;;;;;;;19.33;10.83;;;12.70;99.90;;;;;;5080584;28;20444;-77
2022/04/30 01:09:33;;;;;;;19.90;11.40;;;12.70;99.90;;;;;;5076047;28;20519;-77
2022/04/30 01:12:10;;;;;;;16.77;11.53;;;12.60;99.90;;;;;;5076781;28;20444;-78
2022/04/30 01:14:52;;;;;;;23.17;12.50;;;12.60;99.90;;;;;;5076130;28;20906;-78
2022/04/30 01:17:31;;;;;;;22.03;11.20;;;12.60;1.00;;;;;;5075430;28;20428;-78
2022/04/30 01:20:01;;;;;;;17.33;10.90;;;12.60;1.00;;;;;;5076067;28;20452;-78
2022/04/30 01:22:39;;;;;;;23.57;10.93;;;12.60;1.00;;;;;;5076600;28;20701;-78
2022/04/30 01:25:25;;;;;;;20.63;12.00;;;12.60;1.00;;;;;;5074638;28;20401;-78
2022/04/30 01:27:52;;;;;;;16.67;11.30;;;12.60;1.00;;;;;;5076237;28;20389;-77
2022/04/30 01:30:19;;;;;;;20.37;12.10;;;12.60;1.00;;;;;;5075546;28;20439;-78
2022/04/30 01:39:01;;;;;;;19.90;12.20;;;12.50;1.00;;;;;;5075796;28;20388;-81
2022/04/30 01:41:27;;;;;;;19.87;12.10;;;12.40;1.00;;;;;;5073869;28;20500;-82
2022/04/30 01:44:01;;;;;;;22.90;12.37;;;12.40;1.00;;;;;;5075567;28;20751;-81
2022/04/30 01:46:44;;;;;;;18.73;12.30;;;12.40;1.00;;;;;;5075481;28;20514;-81
2022/04/30 01:49:19;;;;;;;20.70;12.30;;;12.30;1.00;;;;;;5075405;28;20394;-81
2022/04/30 01:51:55;;;;;;;24.93;11.77;;;12.30;1.00;;;;;;5087500;28;20819;-78
2022/04/30 01:54:37;;;;;;;26.57;12.10;;;12.40;1.00;;;;;;5075186;28;20393;-79
2022/04/30 01:57:23;;;;;;;22.17;12.20;;;12.40;1.00;;;;;;5073988;28;20412;-78
2022/04/30 01:59:52;;;;;;;20.40;11.70;;;12.30;1.00;;;;;;5074556;28;20492;-78
2022/04/30 02:02:23;;;;;;;19.63;12.43;;;12.30;1.00;;;;;;5075322;28;20386;-79
2022/04/30 02:04:52;;;;;;;19.93;12.97;;;12.30;1.00;;;;;;5074975;28;20392;-78
2022/04/30 02:07:34;;;;;;;26.47;13.57;;;12.30;1.00;;;;;;5075572;28;20382;-78
2022/04/30 02:10:01;;;;;;;21.47;13.10;;;12.30;1.00;;;;;;5078864;28;20425;-78
2022/04/30 02:12:31;;;;;;;20.80;12.70;;;12.30;1.00;;;;;;5090148;28;20766;-78
2022/04/30 02:15:17;;;;;;;21.60;13.30;;;12.10;1.00;;;;;;5086828;28;20417;-78
2022/04/30 02:17:50;;;;;;;20.40;12.17;;;12.10;1.00;;;;;;5088480;28;20508;-78
2022/04/30 02:20:26;;;;;;;30.83;13.97;;;12.00;1.00;;;;;;5081189;28;20530;-78
2022/04/30 02:23:03;;;;;;;24.40;14.33;;;12.00;1.00;;;;;;5075219;28;20364;-82
2022/04/30 02:25:31;;;;;;;20.50;12.63;;;12.00;1.00;;;;;;5075528;28;20395;-82
2022/04/30 02:28:18;;;;;;;25.17;13.57;;;12.00;1.00;;;;;;5085933;28;20422;-82
2022/04/30 02:30:49;;;;;;;17.50;12.33;;;11.90;1.00;;;;;;5074354;28;20399;-82
2022/04/30 02:34:00;;;;;;;20.10;13.07;;;11.90;1.00;;;;;;5086946;28;20404;-82
2022/04/30 02:36:43;;;;;;;19.33;12.67;;;11.90;1.00;;;;;;5054763;28;20391;-82
2022/04/30 02:39:19;;;;;;;26.60;13.87;;;11.80;1.00;;;;;;5069450;28;20374;-82
2022/04/30 02:42:01;;;;;;;25.33;12.80;;;11.80;1.00;;;;;;5077105;28;20451;-82
2022/04/30 02:44:48;;;;;;;24.43;12.43;;;11.80;1.00;;;;;;5074028;28;20439;-82
2022/04/30 02:47:38;;;;;;;24.13;13.73;;;11.80;1.00;;;;;;5068516;28;20429;-82
2022/04/30 02:50:09;;;;;;;18.63;12.60;;;11.70;1.00;;;;;;5075012;28;20477;-82
2022/04/30 02:52:36;;;;;;;19.27;13.33;;;11.70;1.00;;;;;;5085677;28;20383;-77
2022/04/30 02:55:19;;;;;;;19.60;13.07;;;11.70;1.00;;;;;;5076000;28;20475;-78
2022/04/30 03:01:00;;;;;;;23.20;14.20;;;11.80;1.00;;;;;;5074972;28;20561;-78
2022/04/30 03:03:37;;;;;;;24.07;12.60;;;11.80;1.00;;;;;;5081267;28;20823;-78
2022/04/30 03:06:03;;;;;;;21.73;14.97;;;11.70;1.00;;;;;;5093166;28;20470;-77
2022/04/30 03:08:48;;;;;;;22.40;13.33;;;11.60;1.00;;;;;;5094647;28;20539;-82
2022/04/30 03:11:19;;;;;;;26.20;14.30;;;11.60;1.00;;;;;;5073554;28;20177;-82
2022/04/30 03:14:36;;;;;;;26.53;13.60;;;11.60;1.00;;;;;;5073854;28;20481;-82
2022/04/30 03:23:25;;;;;;;20.80;14.37;;;11.40;1.00;;;;;;5083865;28;20405;-82
2022/04/30 03:26:08;;;;;;;26.03;14.30;;;11.40;1.00;;;;;;5078598;28;20812;-82
2022/04/30 03:28:55;;;;;;;22.47;14.50;;;11.40;1.00;;;;;;5080384;28;20380;-82
2022/04/30 03:32:01;;;;;;;19.00;12.70;;;11.40;1.00;;;;;;5093068;28;20434;-82
2022/04/30 03:34:32;;;;;;;21.47;13.97;;;11.30;1.00;;;;;;5083791;28;20403;-82
2022/04/30 03:37:19;;;;;;;22.23;12.60;;;11.30;1.00;;;;;;5087364;28;20771;-77
2022/04/30 03:40:01;;;;;;;24.97;14.27;;;11.30;1.00;;;;;;5088945;28;20465;-78
2022/04/30 03:42:43;;;;;;;22.53;14.30;;;11.30;1.00;;;;;;5081540;28;20402;-77
2022/04/30 03:45:09;;;;;;;18.90;13.30;;;11.40;1.00;;;;;;5093588;28;20375;-77
2022/04/30 03:47:54;;;;;;;30.07;13.90;;;11.40;1.00;;;;;;5094171;28;20454;-78
2022/04/30 03:50:31;;;;;;;26.57;14.40;;;11.40;1.00;;;;;;5073697;28;20425;-78
2022/04/30 03:56:42;;;;;;;20.37;13.90;;;11.30;1.00;;;;;;5073212;28;20427;-83
2022/04/30 03:59:30;;;;;;;20.00;13.30;;;11.30;1.00;;;;;;5073291;28;20375;-83
2022/04/30 04:02:31;;;;;;;22.80;14.13;;;11.30;1.00;;;;;;5070974;28;20445;-83
2022/04/30 04:05:42;;;;;;;22.80;15.00;;;11.30;1.00;;;;;;5073667;28;20415;-83
2022/04/30 04:08:20;;;;;;;29.43;15.30;;;11.20;1.00;;;;;;5053660;28;20397;-78
2022/04/30 04:11:10;;;;;;;23.20;13.80;;;11.20;1.00;;;;;;5071095;28;20395;-77
2022/04/30 04:19:37;;;;;;;26.07;15.13;;;11.20;1.00;;;;;;5031164;28;20419;-77
2022/04/30 04:22:07;;;;;;;21.90;14.97;;;11.20;1.00;;;;;;5015041;28;20441;-82
2022/04/30 04:30:57;;;;;;;23.40;14.90;;;11.10;1.00;;;;;;5024786;28;20425;-81
2022/04/30 04:36:43;;;;;;;29.77;14.83;;;11.00;1.00;;;;;;5015905;28;20469;-83
2022/04/30 04:39:25;;;;;;;22.83;14.30;;;11.00;1.00;;;;;;5029865;28;20402;-82
2022/04/30 04:45:22;;;;;;;23.33;14.73;;;11.00;1.00;;;;;;5010533;28;20421;-82
2022/04/30 04:48:01;;;;;;;23.90;15.57;;;11.00;1.00;;;;;;5023600;28;20587;-82
2022/04/30 04:50:43;;;;;;;27.27;16.20;;;10.90;1.00;;;;;;5019526;28;20422;-82
2022/04/30 04:53:13;;;;;;;23.70;15.40;;;10.90;1.00;;;;;;5016808;28;20418;-82
2022/04/30 04:55:55;;;;;;;22.27;13.90;;;10.90;1.00;;;;;;5033190;28;20736;-82
2022/04/30 04:58:25;;;;;;;27.20;14.37;;;10.90;1.00;;;;;;5060256;28;20448;-82
2022/04/30 05:01:07;;;;;;;27.23;15.60;;;10.80;1.00;;;;;;5075673;28;20935;-82
2022/04/30 05:03:33;;;;;;;22.33;14.97;;;10.90;1.00;;;;;;5076248;28;20403;-83
2022/04/30 05:06:01;;;;;;;27.23;14.50;;;10.90;1.00;;;;;;5083525;28;20427;-82
2022/04/30 05:08:27;;;;;;;30.67;15.80;;;11.00;1.00;;;;;;5089202;28;20171;-82
2022/04/30 05:11:25;;;;;;;24.60;16.57;;;11.00;1.00;;;;;;5075828;28;20511;-82
2022/04/30 05:13:51;;;;;;;33.03;15.47;;;11.00;1.00;;;;;;5076343;28;20228;-82
2022/04/30 05:16:25;;;;;;;24.80;15.93;;;11.00;1.00;;;;;;5094463;28;20818;-83
2022/04/30 05:18:55;;;;;;;27.37;15.73;;;11.00;1.00;;;;;;5081333;28;20438;-83
2022/04/30 05:21:37;;;;;;;25.93;15.87;;;10.90;1.00;;;;;;5088999;28;20472;-82
2022/04/30 05:24:03;;;;;;;24.80;16.30;;;10.90;1.00;;;;;;5106119;28;20395;-75
2022/04/30 05:26:37;;;;;;;24.37;15.30;;;10.80;1.00;;;;;;5076028;28;20417;-76
2022/04/30 05:29:07;;;;;;;27.30;15.77;;;10.80;1.00;;;;;;5089467;28;20391;-76
2022/04/30 05:31:43;;;;;;;24.93;15.00;;;10.80;1.00;;;;;;5075432;28;20392;-75
2022/04/30 05:34:13;;;;;;;22.53;15.13;;;10.70;1.00;;;;;;5084911;28;20391;-76
2022/04/30 05:36:39;;;;;;;28.57;16.43;;;10.80;1.00;;;;;;5075971;28;20393;-76
2022/04/30 05:43:04;;;;;;;27.13;15.40;;;10.80;1.00;;;;;;5069818;28;20316;-83
2022/04/30 05:49:07;;;;;;;24.97;15.30;;;10.70;1.00;;;;;;5069174;28;20382;-82
2022/04/30 05:52:12;;;;;;;27.80;15.90;;;10.80;1.00;;;;;;5081599;28;20395;-83
2022/04/30 05:58:00;;;;;;;28.50;16.30;;;10.70;1.00;;;;;;5089431;28;20472;-78
2022/04/30 06:00:31;;;;;;;25.60;15.87;;;10.80;1.00;;;;;;5073576;28;20956;-77
2022/04/30 06:02:57;;;;;;;31.60;16.50;;;10.70;1.00;;;;;;5075121;28;20163;-76
2022/04/30 06:05:25;;;;;;;25.00;16.27;;;10.70;1.00;;;;;;5064525;28;20725;-83
2022/04/30 06:07:57;;;;;;;28.87;16.10;;;10.70;1.00;;;;;;5055146;28;20516;-81
2022/04/30 06:10:49;;;;;;;25.53;16.10;;;10.70;1.00;;;;;;5054982;28;20373;-82
2022/04/30 06:13:19;;;;;;;32.77;17.27;;;10.70;1.00;;;;;;5054937;28;20375;-82
2022/04/30 06:16:01;;;;;;;25.50;15.63;;;10.80;1.00;;;;;;5082916;28;20549;-82
2022/04/30 06:18:31;;;;;;;20.27;14.13;;;10.80;1.00;;;;;;5074655;28;20394;-75
2022/04/30 06:21:09;;;;;;;24.37;14.70;;;10.80;1.00;;;;;;5074706;28;20786;-75
2022/04/30 06:23:38;;;;;;;26.77;15.30;;;10.90;1.00;;;;;;5069412;28;20444;-76
2022/04/30 06:26:27;;;;;;;23.63;15.30;;;11.00;1.00;;;;;;5076038;28;20419;-75
2022/04/30 06:29:25;;;;;;;26.00;14.83;;;11.00;1.00;;;;;;5059564;28;20396;-83
2022/04/30 06:32:25;;;;;;;23.47;15.00;;;11.00;1.00;;;;;;5074694;28;20462;-83
2022/04/30 06:38:13;;;;;;;19.70;13.20;;;11.20;1.00;;;;;;5054835;28;20401;-76
2022/04/30 06:40:43;;;;;;;26.47;14.30;;;11.20;1.00;;;;;;5090200;28;20499;-75
2022/04/30 06:43:13;;;;;;;22.33;14.03;;;11.30;1.00;;;;;;5074343;28;20444;-75
2022/04/30 06:45:39;;;;;;;24.67;14.63;;;11.20;1.00;;;;;;5080410;28;20446;-75
2022/04/30 06:48:05;;;;;;;25.77;15.67;;;11.20;1.00;;;;;;5081473;28;20429;-77
2022/04/30 06:50:31;;;;;;;22.70;15.27;;;11.20;1.00;;;;;;5087734;28;20190;-77
2022/04/30 06:58:40;;;;;;;20.50;14.77;;;11.40;1.00;;;;;;5059068;28;20387;-75
2022/04/30 07:03:55;;;;;;;20.73;13.30;;;11.50;1.00;;;;;;5054417;28;20435;-75
2022/04/30 07:06:21;;;;;;;26.70;15.43;;;11.50;1.00;;;;;;5083161;28;20428;-75
2022/04/30 07:09:28;;;;;;;26.20;14.20;;;11.60;1.00;;;;;;5076547;28;20410;-86
2022/04/30 07:18:37;;;;;;;20.80;12.97;;;11.60;1.00;;;;;;5055334;28;20380;-85
2022/04/30 07:21:42;;;;;;;19.50;12.87;;;11.50;1.00;;;;;;5086135;28;20457;-85
2022/04/30 07:24:14;;;;;;;19.00;11.93;;;11.50;1.00;;;;;;5086653;28;20171;-76
2022/04/30 07:26:40;;;;;;;28.57;12.30;;;11.60;1.00;;;;;;5074048;28;20384;-75
2022/04/30 07:29:05;;;;;;;17.37;12.00;;;11.60;1.00;;;;;;5093860;28;20537;-75
2022/04/30 07:31:31;;;;;;;18.00;12.03;;;11.70;1.00;;;;;;5080870;28;20854;-75
2022/04/30 07:33:57;;;;;;;18.20;12.47;;;11.60;1.00;;;;;;5073499;28;20163;-75
2022/04/30 07:36:26;;;;;;;17.30;12.00;;;11.70;1.00;;;;;;5073703;28;20269;-75
2022/04/30 07:38:53;;;;;;;19.50;13.30;;;11.70;1.00;;;;;;5074200;28;20183;-75
2022/04/30 07:41:31;;;;;;;16.63;11.57;;;11.70;1.00;;;;;;5073505;28;20468;-75
2022/04/30 07:44:01;;;;;;;17.50;13.13;;;11.70;1.00;;;;;;5080707;28;20419;-76
2022/04/30 07:46:27;;;;;;;19.30;12.47;;;11.60;1.00;;;;;;5073316;28;20783;-75
2022/04/30 07:49:01;;;;;;;19.80;13.00;;;11.60;1.00;;;;;;5072286;28;20383;-75
2022/04/30 07:51:42;;;;;;;18.90;12.87;;;11.60;1.00;;;;;;5073321;28;20759;-75
2022/04/30 07:57:30;;;;;;;30.80;13.20;;;11.60;1.00;;;;;;5068831;28;20440;-84
2022/04/30 08:00:36;;;;;;;21.30;13.47;;;11.60;1.00;;;;;;5073663;28;20444;-85
2022/04/30 08:03:13;;;;;;;16.10;11.70;;;11.60;1.00;;;;;;5075383;28;20265;-75
2022/04/30 08:06:01;;;;;;;18.27;13.20;;;11.50;1.00;;;;;;5073334;28;20405;-76
2022/04/30 08:08:27;;;;;;;18.93;12.77;;;11.60;1.00;;;;;;5073576;28;20420;-76
2022/04/30 08:10:55;;;;;;;22.03;12.23;;;11.60;1.00;;;;;;5087501;28;20896;-88
2022/04/30 08:13:21;;;;;;;19.63;12.90;;;11.70;1.00;;;;;;5068412;28;20806;-83
2022/04/30 08:23:19;;;;;;;17.43;12.80;;;11.60;1.00;;;;;;5088094;28;20428;-83
2022/04/30 08:25:49;;;;;;;19.47;10.60;;;11.50;1.00;;;;;;5091093;28;20440;-76
2022/04/30 08:28:25;;;;;;;14.37;9.33;;;11.50;1.00;;;;;;5077155;28;20406;-76
2022/04/30 08:31:01;;;;;;;14.83;10.23;;;11.40;1.00;;;;;;5057126;28;20393;-76
2022/04/30 08:33:31;;;;;;;11.77;9.03;;;11.40;1.00;;;;;;5088540;28;20795;-76
2022/04/30 08:36:07;;;;;;;14.37;9.27;;;11.40;1.00;;;;;;5089245;28;20406;-76
2022/04/30 08:38:33;;;;;;;11.73;8.90;;;11.40;1.00;;;;;;5080364;28;20420;-77
2022/04/30 08:41:01;;;;;;;10.97;8.57;;;11.40;1.00;;;;;;5095828;28;20459;-76
2022/04/30 08:43:32;;;;;;;9.07;7.20;;;11.40;1.00;;;;;;5089050;28;20890;-77
2022/04/30 08:46:20;;;;;;;10.90;8.37;;;11.40;1.00;;;;;;5076731;28;20396;-77
2022/04/30 08:48:49;;;;;;;12.20;8.00;;;11.40;1.00;;;;;;5089675;28;20906;-77
2022/04/30 08:51:25;;;;;;;9.90;7.70;;;11.50;1.00;;;;;;5075939;28;20402;-76
2022/04/30 08:53:51;;;;;;;12.93;8.60;;;11.40;1.00;;;;;;5065867;28;20399;-76
2022/04/30 08:56:19;;;;;;;9.67;7.57;;;11.40;1.00;;;;;;5079760;28;20465;-77
2022/04/30 08:58:49;;;;;;;7.97;7.00;;;11.30;1.00;;;;;;5088800;28;20539;-77
2022/04/30 09:01:19;;;;;;;6.67;5.97;;;11.20;1.00;;;;;;5093135;28;20475;-78
2022/04/30 09:09:32;;;;;;;10.13;7.37;;;11.00;1.00;;;;;;5105330;27;20942;-70
2022/04/30 09:12:08;;;;;;;9.70;7.20;;;10.80;1.00;;;;;;5090878;28;20391;-69
2022/04/30 09:14:37;;;;;;;11.13;7.60;;;10.70;1.00;;;;;;5077947;28;20647;-69
2022/04/30 09:17:12;;;;;;;10.60;7.00;;;10.70;1.00;;;;;;5090946;28;20495;-79
2022/04/30 09:19:52;;;;;;;11.27;7.50;;;10.70;1.00;;;;;;5077326;28;20938;-85
2022/04/30 09:22:35;;;;;;;16.33;7.40;;;10.80;1.00;;;;;;5091148;28;20409;-78
2022/04/30 09:25:09;;;;;;;13.77;7.17;;;10.80;1.00;;;;;;5089598;28;20419;-80
2022/04/30 09:27:51;;;;;;;8.87;6.60;;;10.70;1.00;;;;;;5075116;28;20456;-76
2022/04/30 09:30:32;;;;;;;9.10;7.40;;;10.70;1.00;;;;;;5082257;28;20398;-75
2022/04/30 09:33:03;;;;;;;9.27;6.80;;;10.70;1.00;;;;;;5091074;28;20359;-75
2022/04/30 09:38:38;;;;;;;9.50;6.90;;;10.80;1.00;;;;;;5090602;28;20980;-78
2022/04/30 09:41:07;;;;;;;9.67;6.80;;;10.60;1.00;;;;;;5090263;28;20407;-81
2022/04/30 09:43:37;;;;;;;10.73;6.47;;;10.70;1.00;;;;;;5090835;28;20391;-83
2022/04/30 09:46:25;;;;;;;10.10;7.00;;;10.70;1.00;;;;;;5090027;28;20490;-83
2022/04/30 09:54:39;;;;;;;10.03;7.80;;;10.70;1.00;;;;;;5079654;28;20761;-84
2022/04/30 09:57:07;;;;;;;14.80;8.40;;;10.80;1.00;;;;;;5076890;28;20397;-76
2022/04/30 09:59:38;;;;;;;11.70;8.53;;;10.80;1.00;;;;;;5082198;28;20398;-76
2022/04/30 10:02:08;;;;;;;13.03;8.60;;;10.90;1.00;;;;;;5089799;28;20453;-76
2022/04/30 10:04:49;;;;;;;12.40;8.27;;;11.00;1.00;;;;;;5075958;28;20398;-76
2022/04/30 10:07:21;;;;;;;10.90;8.70;;;11.00;1.00;;;;;;5081742;28;20387;-76
2022/04/30 10:10:01;;;;;;;13.00;8.57;;;11.10;1.00;;;;;;5079397;28;20789;-76
2022/04/30 10:12:54;;;;;;;10.77;8.73;;;11.00;1.00;;;;;;5086562;28;20392;-83
2022/04/30 10:15:44;;;;;;;13.07;9.30;;;11.00;1.00;;;;;;5077010;28;20410;-84
2022/04/30 10:18:35;;;;;;;11.50;8.40;;;10.90;1.00;;;;;;5095540;28;20454;-83
2022/04/30 10:21:17;;;;;;;13.90;8.57;;;10.90;1.00;;;;;;5063099;28;20408;-83
2022/04/30 10:24:19;;;;;;;10.07;8.50;;;11.00;1.00;;;;;;5062885;28;20405;-83
2022/04/30 10:27:00;;;;;;;12.77;9.27;;;11.00;1.00;;;;;;5075592;28;20382;-75
2022/04/30 10:29:37;;;;;;;12.00;8.87;;;11.00;1.00;;;;;;5083628;28;20786;-76
2022/04/30 10:32:07;;;;;;;13.27;8.53;;;11.10;1.00;;;;;;5071677;28;20887;-76
2022/04/30 10:34:37;;;;;;;12.97;8.80;;;11.00;1.00;;;;;;5073049;28;20386;-76
2022/04/30 10:37:13;;;;;;;14.83;9.60;;;11.00;1.00;;;;;;5072982;28;20507;-76
2022/04/30 10:43:01;;;;;;;16.10;10.13;;;11.00;1.00;;;;;;5069524;28;20459;-76
2022/04/30 10:45:37;;;;;;;12.73;9.60;;;11.00;1.00;;;;;;5056170;28;20387;-76
2022/04/30 10:48:04;;;;;;;13.90;9.43;;;11.00;1.00;;;;;;5056864;28;20203;-76
2022/04/30 10:50:31;;;;;;;12.03;9.33;;;11.00;1.00;;;;;;5067646;28;20425;-76
2022/04/30 10:52:59;;;;;;;12.57;9.80;;;11.10;1.00;;;;;;5055995;28;20860;-76
2022/04/30 10:55:26;;;;;;;14.33;9.10;;;11.20;1.00;;;;;;5070922;28;20847;-76
2022/04/30 10:58:25;;;;;;;13.63;10.13;;;11.30;1.00;;;;;;5067908;28;20797;-82
2022/04/30 11:00:55;;;;;;;12.70;9.30;;;11.20;1.00;;;;;;5062028;28;20520;-85
2022/04/30 11:03:31;;;;;;;11.40;9.30;;;11.20;1.00;;;;;;5073790;28;20474;-83
2022/04/30 11:09:20;;;;;;;14.53;9.77;;;11.30;1.00;;;;;;5063166;28;20504;-85
2022/04/30 11:12:26;;;;;;;13.27;9.77;;;11.30;1.00;;;;;;5057543;28;20377;-85
2022/04/30 11:15:02;;;;;;;13.87;9.93;;;11.30;1.00;;;;;;5069521;28;20835;-85
2022/04/30 11:27:33;;;;;;;15.67;10.70;;;11.30;1.00;;;;;;5074572;28;21791;-80
2022/04/30 11:30:01;;;;;;;14.63;10.43;;;11.40;1.00;;;;;;5059779;28;20417;-79
2022/04/30 11:32:31;;;;;;;13.77;11.07;;;11.40;1.00;;;;;;5062683;28;20257;-79
2022/04/30 11:35:31;;;;;;;18.23;10.43;;;11.40;1.00;;;;;;5057037;28;20382;-81
2022/04/30 11:38:37;;;;;;;15.80;10.57;;;11.40;1.00;;;;;;5062209;28;20388;-82
2022/04/30 11:41:19;;;;;;;15.00;10.40;;;11.50;1.00;;;;;;5055452;28;20425;-80
2022/04/30 11:44:25;;;;;;;15.90;10.83;;;11.60;1.00;;;;;;5057765;28;20472;-80
2022/04/30 11:46:52;;;;;;;18.17;11.90;;;11.60;1.00;;;;;;5064838;28;20417;-81
2022/04/30 11:49:31;;;;;;;15.80;11.23;;;11.60;1.00;;;;;;5055705;28;20949;-84
2022/04/30 11:52:08;;;;;;;15.93;10.80;;;11.70;1.00;;;;;;5072843;28;20433;-84
2022/04/30 11:58:02;;;;;;;18.10;11.00;;;11.70;1.00;;;;;;5074751;28;20382;-81
2022/04/30 12:04:02;;;;;;;21.03;11.67;;;11.90;1.00;;;;;;5066106;28;20435;-82
2022/04/30 12:07:01;;;;;;;18.23;12.17;;;12.10;1.00;;;;;;5067636;28;20871;-78
2022/04/30 12:09:46;;;;;;;16.30;10.33;;;12.30;1.00;;;;;;5066143;28;20464;-78
2022/04/30 12:12:21;;;;;;;12.97;9.63;;;12.70;1.00;;;;;;5074447;28;20403;-82
2022/04/30 12:14:51;;;;;;;15.13;10.10;;;12.80;1.00;;;;;;5074109;28;20413;-82
2022/04/30 12:17:46;;;;;;;11.97;9.23;;;13.10;1.00;;;;;;5074261;28;20762;-81
2022/04/30 12:27:09;;;;;;;13.83;9.60;;;14.20;1.00;;;;;;4993231;28;20889;-81
2022/04/30 12:30:12;;;;;;;12.30;8.20;;;14.50;1.00;;;;;;4991729;28;20472;-81
2022/04/30 12:39:37;;;;;;;10.83;8.83;;;14.80;99.90;;;;;;4984540;28;20409;-82
2022/04/30 12:42:04;;;;;;;12.67;8.30;;;14.80;99.90;;;;;;4992629;28;20444;-78
2022/04/30 12:44:43;;;;;;;12.73;8.20;;;14.80;99.90;;;;;;4992299;28;20509;-77
2022/04/30 12:47:19;;;;;;;16.20;9.30;;;14.90;99.90;;;;;;4992516;28;20380;-78
2022/04/30 12:49:49;;;;;;;13.07;8.70;;;15.20;99.90;;;;;;4991893;28;20441;-78
2022/04/30 12:52:19;;;;;;;15.47;8.80;;;15.50;99.90;;;;;;4992739;28;20417;-77
2022/04/30 12:54:50;;;;;;;11.23;9.13;;;15.80;99.90;;;;;;4992370;28;20885;-78
2022/04/30 12:57:19;;;;;;;12.77;9.20;;;15.90;99.90;;;;;;4992606;28;20440;-77
2022/04/30 12:59:45;;;;;;;24.27;9.80;;;16.00;99.90;;;;;;4991848;28;20460;-76
2022/04/30 13:02:10;;;;;;;12.50;8.80;;;16.00;99.90;;;;;;5025697;28;20445;-70
2022/04/30 13:04:36;;;;;;;16.73;9.50;;;16.00;99.90;;;;;;5071828;28;20178;-71
2022/04/30 13:07:02;;;;;;;11.07;8.60;;;16.10;99.90;;;;;;5070353;28;20167;-69
2022/04/30 13:15:07;;;;;;;12.67;7.60;;;15.70;99.90;;;;;;5073492;28;20420;-74
2022/04/30 13:17:33;;;;;;;12.83;9.03;;;15.60;99.90;;;;;;5073495;28;20390;-70
2022/04/30 13:19:59;;;;;;;12.70;9.23;;;15.60;99.90;;;;;;5070956;28;20429;-70
2022/04/30 13:22:25;;;;;;;18.83;9.70;;;15.70;99.90;;;;;;5072911;28;20183;-69
2022/04/30 13:24:51;;;;;;;12.93;8.17;;;15.90;99.90;;;;;;5073308;28;20780;-69
2022/04/30 13:27:17;;;;;;;10.93;8.53;;;16.20;99.90;;;;;;5073467;28;20515;-69
2022/04/30 13:29:42;;;;;;;14.63;8.67;;;16.50;99.90;;;;;;5071626;28;20451;-71
2022/04/30 13:32:10;;;;;;;20.90;8.83;;;16.70;99.90;;;;;;5072958;28;20172;-71
2022/04/30 13:34:36;;;;;;;13.77;9.67;;;16.80;99.90;;;;;;5073307;28;20199;-71
2022/04/30 13:37:02;;;;;;;13.57;9.20;;;16.70;99.90;;;;;;5073085;28;20449;-70
2022/04/30 13:39:28;;;;;;;14.23;9.17;;;16.40;99.90;;;;;;5069760;28;20176;-71
2022/04/30 13:41:54;;;;;;;15.00;9.00;;;16.40;99.90;;;;;;5072748;28;20945;-71
2022/04/30 13:44:25;;;;;;;18.77;9.30;;;16.30;99.90;;;;;;5073177;28;20188;-73
2022/04/30 13:46:52;;;;;;;15.17;10.00;;;16.40;99.90;;;;;;5073087;28;20171;-73
2022/04/30 13:49:18;;;;;;;15.20;8.53;;;16.40;99.90;;;;;;5071318;28;20456;-73
2022/04/30 13:51:44;;;;;;;19.40;9.23;;;16.40;99.90;;;;;;5073039;28;20743;-71
2022/04/30 13:54:25;;;;;;;13.10;9.17;;;16.30;99.90;;;;;;5073539;28;20163;-74
2022/04/30 13:56:53;;;;;;;14.77;8.67;;;16.20;99.90;;;;;;5065213;28;20409;-74
2022/04/30 13:59:24;;;;;;;13.23;9.53;;;16.10;99.90;;;;;;5076477;28;20412;-73
2022/04/30 14:01:55;;;;;;;14.63;9.60;;;16.10;99.90;;;;;;5056967;28;20391;-77
2022/04/30 14:04:37;;;;;;;14.63;9.57;;;16.20;99.90;;;;;;5073056;28;20429;-79
2022/04/30 14:07:25;;;;;;;12.73;9.80;;;16.00;99.90;;;;;;5076730;28;20397;-78
2022/04/30 14:10:01;;;;;;;11.63;8.60;;;15.90;99.90;;;;;;5059797;28;20403;-78
2022/04/30 14:12:31;;;;;;;18.33;10.10;;;16.10;99.90;;;;;;5073047;28;20401;-78
2022/04/30 14:14:57;;;;;;;18.63;9.87;;;16.10;99.90;;;;;;5067521;28;20884;-72
2022/04/30 14:20:12;;;;;;;11.47;9.07;;;16.20;99.90;;;;;;5069394;28;20932;-73
2022/04/30 14:22:39;;;;;;;16.53;9.23;;;16.20;99.90;;;;;;5062890;28;20381;-72
2022/04/30 14:25:07;;;;;;;15.07;9.70;;;16.20;99.90;;;;;;5076274;28;20790;-72
2022/04/30 14:27:37;;;;;;;17.43;10.00;;;16.40;99.90;;;;;;5076078;28;20413;-78
2022/04/30 14:30:10;;;;;;;15.77;10.07;;;16.10;99.90;;;;;;5076020;28;20422;-77
2022/04/30 14:35:59;;;;;;;15.23;7.80;;;15.90;99.90;;;;;;5056227;28;20352;-82
2022/04/30 14:38:25;;;;;;;18.63;7.73;;;16.00;99.90;;;;;;5059655;28;20417;-81
2022/04/30 14:40:55;;;;;;;17.40;11.70;;;16.00;99.90;;;;;;5074426;28;20421;-81
2022/04/30 14:43:34;;;;;;;20.40;11.50;;;16.00;99.90;;;;;;5076560;28;20416;-76
2022/04/30 14:46:07;;;;;;;16.97;10.37;;;15.90;99.90;;;;;;5075956;28;20428;-76
2022/04/30 14:48:34;;;;;;;17.40;9.80;;;16.10;99.90;;;;;;5056243;28;20437;-76
2022/04/30 14:51:37;;;;;;;14.40;10.30;;;16.40;99.90;;;;;;5060790;28;20462;-76
2022/04/30 14:54:03;;;;;;;13.50;9.27;;;16.30;99.90;;;;;;5067877;28;20380;-76
2022/04/30 14:56:43;;;;;;;24.47;14.97;;;16.30;99.90;;;;;;5071315;28;20933;-76
2022/04/30 14:59:12;;;;;;;24.03;12.17;;;16.10;99.90;;;;;;5070215;28;20954;-76
2022/04/30 15:01:45;;;;;;;21.43;11.70;;;16.20;99.90;;;;;;5069482;28;20421;-76
2022/04/30 15:04:13;;;;;;;19.53;10.20;;;16.20;99.90;;;;;;5069688;28;20441;-76
2022/04/30 15:06:50;;;;;;;15.60;11.17;;;16.00;99.90;;;;;;5064826;28;20418;-76
2022/04/30 15:09:28;;;;;;;21.50;13.57;;;16.00;99.90;;;;;;5075368;28;20475;-76
2022/04/30 15:11:55;;;;;;;15.53;10.47;;;15.90;99.90;;;;;;5073542;28;20416;-76
2022/04/30 15:14:49;;;;;;;14.90;10.20;;;16.00;99.90;;;;;;5076096;28;20962;-77
2022/04/30 15:17:15;;;;;;;19.20;10.33;;;16.00;99.90;;;;;;5075483;28;20405;-77
2022/04/30 15:19:49;;;;;;;17.20;12.07;;;16.00;99.90;;;;;;5070683;28;20418;-76
2022/04/30 15:22:26;;;;;;;14.73;9.83;;;15.90;99.90;;;;;;5072468;28;20182;-77
2022/04/30 15:25:09;;;;;;;13.87;9.63;;;15.90;99.90;;;;;;5075588;28;20452;-77
2022/04/30 15:27:49;;;;;;;14.17;9.87;;;15.60;99.90;;;;;;5062900;28;20425;-77
2022/04/30 15:30:19;;;;;;;18.33;10.43;;;15.40;99.90;;;;;;5075663;28;20389;-80
2022/04/30 15:32:47;;;;;;;16.83;10.07;;;15.30;99.90;;;;;;5066488;28;20422;-78
2022/04/30 15:35:13;;;;;;;15.03;9.57;;;15.30;99.90;;;;;;5059230;28;20420;-78
2022/04/30 15:37:49;;;;;;;19.30;10.53;;;15.20;99.90;;;;;;5090331;28;20433;-77
2022/04/30 15:40:26;;;;;;;20.90;9.77;;;15.10;99.90;;;;;;5074756;28;20985;-78
2022/04/30 15:43:13;;;;;;;13.80;9.90;;;15.00;99.90;;;;;;5070448;28;20417;-77